sensor_id;sensor_type;location;lat;lon;timestamp;pressure;altitude;pressure_sealevel;temperature;humidity
16580;BME280;8402;51.466;6.806;2023-06-10T00:00:26;101101.44;;;25.05;48.10
16580;BME280;8402;51.466;6.806;2023-06-10T00:02:58;101108.19;;;24.96;48.10
16580;BME280;8402;51.466;6.806;2023-06-10T00:05:29;101108.59;;;24.91;48.31
16580;BME280;8402;51.466;6.806;2023-06-10T00:07:59;101118.94;;;24.87;48.38
16580;BME280;8402;51.466;6.806;2023-06-10T00:10:37;101110.66;;;24.80;49.17
16580;BME280;8402;51.466;6.806;2023-06-10T00:13:08;101117.41;;;24.68;48.75
16580;BME280;8402;51.466;6.806;2023-06-10T00:15:40;101107.13;;;24.62;48.83
16580;BME280;8402;51.466;6.806;2023-06-10T00:18:10;101100.00;;;24.57;49.09
16580;BME280;8402;51.466;6.806;2023-06-10T00:20:41;101106.78;;;24.49;49.28
16580;BME280;8402;51.466;6.806;2023-06-10T00:23:11;101107.56;;;24.42;49.49
16580;BME280;8402;51.466;6.806;2023-06-10T00:25:43;101102.84;;;24.36;49.77
16580;BME280;8402;51.466;6.806;2023-06-10T00:28:13;101098.88;;;24.33;49.69
16580;BME280;8402;51.466;6.806;2023-06-10T00:30:43;101101.63;;;24.26;49.77
16580;BME280;8402;51.466;6.806;2023-06-10T00:33:13;101102.03;;;24.21;49.88
16580;BME280;8402;51.466;6.806;2023-06-10T00:35:43;101099.28;;;24.07;50.18
16580;BME280;8402;51.466;6.806;2023-06-10T00:38:13;101115.91;;;24.00;50.32
16580;BME280;8402;51.466;6.806;2023-06-10T00:40:46;101112.78;;;23.94;50.72
16580;BME280;8402;51.466;6.806;2023-06-10T00:43:16;101116.31;;;23.91;50.39
16580;BME280;8402;51.466;6.806;2023-06-10T00:45:46;101107.59;;;23.85;50.57
16580;BME280;8402;51.466;6.806;2023-06-10T00:48:17;101115.13;;;23.81;51.31
16580;BME280;8402;51.466;6.806;2023-06-10T00:50:47;101114.34;;;23.81;51.58
16580;BME280;8402;51.466;6.806;2023-06-10T00:53:18;101113.94;;;23.82;51.60
16580;BME280;8402;51.466;6.806;2023-06-10T00:55:51;101120.69;;;23.81;51.46
16580;BME280;8402;51.466;6.806;2023-06-10T00:58:22;101123.06;;;23.79;51.28
16580;BME280;8402;51.466;6.806;2023-06-10T01:00:52;101119.88;;;23.77;51.88
16580;BME280;8402;51.466;6.806;2023-06-10T01:03:22;101118.31;;;23.76;51.58
16580;BME280;8402;51.466;6.806;2023-06-10T01:05:57;101114.75;;;23.79;51.33
16580;BME280;8402;51.466;6.806;2023-06-10T01:08:35;101117.91;;;23.78;52.04
16580;BME280;8402;51.466;6.806;2023-06-10T01:11:16;101120.28;;;23.72;51.84
16580;BME280;8402;51.466;6.806;2023-06-10T01:13:49;101115.13;;;23.74;52.05
16580;BME280;8402;51.466;6.806;2023-06-10T01:16:22;101127.00;;;23.71;51.83
16580;BME280;8402;51.466;6.806;2023-06-10T01:18:52;101123.03;;;23.69;51.56
16580;BME280;8402;51.466;6.806;2023-06-10T01:21:25;101137.69;;;23.69;52.06
16580;BME280;8402;51.466;6.806;2023-06-10T01:23:55;101129.00;;;23.67;52.23
16580;BME280;8402;51.466;6.806;2023-06-10T01:26:29;101132.91;;;23.59;52.09
16580;BME280;8402;51.466;6.806;2023-06-10T01:29:06;101132.47;;;23.50;52.26
16580;BME280;8402;51.466;6.806;2023-06-10T01:31:41;101134.84;;;23.41;52.67
16580;BME280;8402;51.466;6.806;2023-06-10T01:34:14;101139.59;;;23.37;52.17
16580;BME280;8402;51.466;6.806;2023-06-10T01:36:50;101135.59;;;23.34;52.74
16580;BME280;8402;51.466;6.806;2023-06-10T01:39:22;101127.69;;;23.32;52.65
16580;BME280;8402;51.466;6.806;2023-06-10T01:41:54;101136.41;;;23.31;52.71
16580;BME280;8402;51.466;6.806;2023-06-10T01:44:24;101136.38;;;23.27;52.69
16580;BME280;8402;51.466;6.806;2023-06-10T01:46:54;101140.34;;;23.23;52.95
16580;BME280;8402;51.466;6.806;2023-06-10T01:49:24;101137.91;;;23.14;53.08
16580;BME280;8402;51.466;6.806;2023-06-10T01:51:58;101138.72;;;23.08;54.30
16580;BME280;8402;51.466;6.806;2023-06-10T01:54:28;101131.56;;;23.03;53.27
16580;BME280;8402;51.466;6.806;2023-06-10T01:56:58;101132.72;;;22.98;53.60
16580;BME280;8402;51.466;6.806;2023-06-10T01:59:30;101139.44;;;22.94;53.67
16580;BME280;8402;51.466;6.806;2023-06-10T02:02:00;101144.94;;;22.90;54.37
16580;BME280;8402;51.466;6.806;2023-06-10T02:04:31;101142.56;;;22.89;54.12
16580;BME280;8402;51.466;6.806;2023-06-10T02:07:04;101140.56;;;22.86;54.39
16580;BME280;8402;51.466;6.806;2023-06-10T02:09:35;101135.78;;;22.83;54.72
16580;BME280;8402;51.466;6.806;2023-06-10T02:12:07;101140.91;;;22.80;54.78
16580;BME280;8402;51.466;6.806;2023-06-10T02:14:40;101140.09;;;22.76;54.96
16580;BME280;8402;51.466;6.806;2023-06-10T02:17:10;101139.69;;;22.78;55.00
16580;BME280;8402;51.466;6.806;2023-06-10T02:19:41;101141.69;;;22.77;55.20
16580;BME280;8402;51.466;6.806;2023-06-10T02:22:23;101146.84;;;22.79;55.20
16580;BME280;8402;51.466;6.806;2023-06-10T02:24:53;101143.69;;;22.80;55.03
16580;BME280;8402;51.466;6.806;2023-06-10T02:27:23;101142.50;;;22.82;55.04
16580;BME280;8402;51.466;6.806;2023-06-10T02:29:53;101150.00;;;22.85;54.98
16580;BME280;8402;51.466;6.806;2023-06-10T02:32:23;101140.91;;;22.84;55.36
16580;BME280;8402;51.466;6.806;2023-06-10T02:34:53;101148.03;;;22.82;55.60
16580;BME280;8402;51.466;6.806;2023-06-10T02:37:25;101148.78;;;22.78;55.75
16580;BME280;8402;51.466;6.806;2023-06-10T02:39:55;101141.69;;;22.77;55.43
16580;BME280;8402;51.466;6.806;2023-06-10T02:42:25;101142.47;;;22.74;55.87
16580;BME280;8402;51.466;6.806;2023-06-10T02:44:55;101133.78;;;22.72;56.08
16580;BME280;8402;51.466;6.806;2023-06-10T02:47:26;101139.25;;;22.65;55.91
16580;BME280;8402;51.466;6.806;2023-06-10T02:49:55;101140.81;;;22.59;56.12
16580;BME280;8402;51.466;6.806;2023-06-10T02:52:28;101134.44;;;22.55;56.19
16580;BME280;8402;51.466;6.806;2023-06-10T02:54:58;101135.97;;;22.49;56.39
16580;BME280;8402;51.466;6.806;2023-06-10T02:57:28;101138.75;;;22.45;56.71
16580;BME280;8402;51.466;6.806;2023-06-10T02:59:58;101141.47;;;22.42;56.58
16580;BME280;8402;51.466;6.806;2023-06-10T03:02:30;101139.44;;;22.32;57.34
16580;BME280;8402;51.466;6.806;2023-06-10T03:05:04;101139.00;;;22.26;57.24
16580;BME280;8402;51.466;6.806;2023-06-10T03:07:40;101141.31;;;22.20;58.05
16580;BME280;8402;51.466;6.806;2023-06-10T03:10:10;101133.41;;;22.15;57.54
16580;BME280;8402;51.466;6.806;2023-06-10T03:12:40;101134.94;;;22.09;57.94
16580;BME280;8402;51.466;6.806;2023-06-10T03:15:10;101132.47;;;22.04;58.41
16580;BME280;8402;51.466;6.806;2023-06-10T03:17:41;101141.56;;;22.01;58.12
16580;BME280;8402;51.466;6.806;2023-06-10T03:20:12;101136.78;;;21.98;58.54
16580;BME280;8402;51.466;6.806;2023-06-10T03:22:46;101141.09;;;21.95;58.54
16580;BME280;8402;51.466;6.806;2023-06-10T03:25:16;101144.22;;;21.90;58.73
16580;BME280;8402;51.466;6.806;2023-06-10T03:27:47;101149.66;;;21.83;58.73
16580;BME280;8402;51.466;6.806;2023-06-10T03:30:17;101144.88;;;21.77;58.78
16580;BME280;8402;51.466;6.806;2023-06-10T03:32:47;101150.72;;;21.71;59.39
16580;BME280;8402;51.466;6.806;2023-06-10T03:35:18;101153.09;;;21.69;59.69
16580;BME280;8402;51.466;6.806;2023-06-10T03:37:51;101151.91;;;21.70;59.92
16580;BME280;8402;51.466;6.806;2023-06-10T03:40:21;101153.53;;;21.75;59.60
16580;BME280;8402;51.466;6.806;2023-06-10T03:42:51;101148.81;;;21.76;59.75
16580;BME280;8402;51.466;6.806;2023-06-10T03:45:21;101158.28;;;21.78;59.27
16580;BME280;8402;51.466;6.806;2023-06-10T03:47:51;101163.88;;;21.82;59.23
16580;BME280;8402;51.466;6.806;2023-06-10T03:50:22;101167.88;;;21.88;59.25
16580;BME280;8402;51.466;6.806;2023-06-10T03:52:55;101163.16;;;21.92;59.90
16580;BME280;8402;51.466;6.806;2023-06-10T03:55:25;101169.13;;;21.94;59.72
16580;BME280;8402;51.466;6.806;2023-06-10T03:57:55;101160.84;;;21.94;59.44
16580;BME280;8402;51.466;6.806;2023-06-10T04:00:25;101161.97;;;21.93;59.22
16580;BME280;8402;51.466;6.806;2023-06-10T04:02:55;101166.72;;;21.92;59.26
16580;BME280;8402;51.466;6.806;2023-06-10T04:05:25;101169.13;;;21.94;59.43
16580;BME280;8402;51.466;6.806;2023-06-10T04:07:58;101169.13;;;21.94;59.23
16580;BME280;8402;51.466;6.806;2023-06-10T04:10:28;101175.44;;;21.94;59.25
16580;BME280;8402;51.466;6.806;2023-06-10T04:12:58;101174.16;;;21.85;59.02
16580;BME280;8402;51.466;6.806;2023-06-10T04:15:29;101171.75;;;21.80;59.49
16580;BME280;8402;51.466;6.806;2023-06-10T04:17:59;101172.50;;;21.77;59.28
16580;BME280;8402;51.466;6.806;2023-06-10T04:20:30;101181.09;;;21.71;59.49
16580;BME280;8402;51.466;6.806;2023-06-10T04:23:03;101185.81;;;21.67;59.57
16580;BME280;8402;51.466;6.806;2023-06-10T04:25:33;101181.03;;;21.64;59.67
16580;BME280;8402;51.466;6.806;2023-06-10T04:28:03;101188.91;;;21.62;59.63
16580;BME280;8402;51.466;6.806;2023-06-10T04:30:34;101186.47;;;21.57;60.09
16580;BME280;8402;51.466;6.806;2023-06-10T04:33:03;101185.34;;;21.58;59.97
16580;BME280;8402;51.466;6.806;2023-06-10T04:35:36;101184.81;;;21.49;59.92
16580;BME280;8402;51.466;6.806;2023-06-10T04:38:08;101193.88;;;21.46;60.33
16580;BME280;8402;51.466;6.806;2023-06-10T04:40:39;101186.31;;;21.43;60.00
16580;BME280;8402;51.466;6.806;2023-06-10T04:43:10;101187.09;;;21.40;59.91
16580;BME280;8402;51.466;6.806;2023-06-10T04:45:40;101186.28;;;21.39;59.65
16580;BME280;8402;51.466;6.806;2023-06-10T04:48:11;101187.09;;;21.40;59.66
16580;BME280;8402;51.466;6.806;2023-06-10T04:50:42;101184.75;;;21.42;59.99
16580;BME280;8402;51.466;6.806;2023-06-10T04:53:14;101187.94;;;21.44;59.92
16580;BME280;8402;51.466;6.806;2023-06-10T04:55:44;101184.75;;;21.42;59.53
16580;BME280;8402;51.466;6.806;2023-06-10T04:58:15;101186.28;;;21.39;59.86
16580;BME280;8402;51.466;6.806;2023-06-10T05:00:45;101189.84;;;21.40;59.65
16580;BME280;8402;51.466;6.806;2023-06-10T05:03:15;101191.84;;;21.43;59.94
16580;BME280;8402;51.466;6.806;2023-06-10T05:05:45;101186.31;;;21.43;59.77
16580;BME280;8402;51.466;6.806;2023-06-10T05:08:18;101185.91;;;21.41;60.05
16580;BME280;8402;51.466;6.806;2023-06-10T05:10:48;101189.53;;;21.45;59.94
16580;BME280;8402;51.466;6.806;2023-06-10T05:13:17;101196.31;;;21.51;60.02
16580;BME280;8402;51.466;6.806;2023-06-10T05:15:47;101193.63;;;21.58;59.67
16580;BME280;8402;51.466;6.806;2023-06-10T05:18:17;101192.44;;;21.59;59.56
16580;BME280;8402;51.466;6.806;2023-06-10T05:20:48;101200.72;;;21.59;59.97
16580;BME280;8402;51.466;6.806;2023-06-10T05:23:21;101194.44;;;21.62;59.86
16580;BME280;8402;51.466;6.806;2023-06-10T05:25:51;101195.63;;;21.61;59.40
16580;BME280;8402;51.466;6.806;2023-06-10T05:28:21;101196.03;;;21.63;59.40
16580;BME280;8402;51.466;6.806;2023-06-10T05:30:51;101198.44;;;21.68;59.49
16580;BME280;8402;51.466;6.806;2023-06-10T05:33:21;101195.69;;;21.68;59.63
16580;BME280;8402;51.466;6.806;2023-06-10T05:35:51;101203.22;;;21.71;59.74
16580;BME280;8402;51.466;6.806;2023-06-10T05:38:24;101196.94;;;21.75;59.93
16580;BME280;8402;51.466;6.806;2023-06-10T05:40:54;101201.28;;;21.76;59.63
16580;BME280;8402;51.466;6.806;2023-06-10T05:43:25;101199.31;;;21.76;59.41
16580;BME280;8402;51.466;6.806;2023-06-10T05:45:55;101196.09;;;21.70;60.08
16580;BME280;8402;51.466;6.806;2023-06-10T05:48:25;101200.81;;;21.70;60.36
16580;BME280;8402;51.466;6.806;2023-06-10T05:50:55;101194.50;;;21.69;60.03
16580;BME280;8402;51.466;6.806;2023-06-10T05:53:28;101200.44;;;21.71;60.31
16580;BME280;8402;51.466;6.806;2023-06-10T05:55:58;101202.41;;;21.71;59.99
16580;BME280;8402;51.466;6.806;2023-06-10T05:58:28;101208.72;;;21.71;60.17
16580;BME280;8402;51.466;6.806;2023-06-10T06:00:58;101199.28;;;21.73;59.53
16580;BME280;8402;51.466;6.806;2023-06-10T06:03:28;101206.41;;;21.74;58.92
16580;BME280;8402;51.466;6.806;2023-06-10T06:05:58;101212.31;;;21.72;58.91
16580;BME280;8402;51.466;6.806;2023-06-10T06:08:30;101209.16;;;21.74;59.23
16580;BME280;8402;51.466;6.806;2023-06-10T06:11:00;101208.00;;;21.75;58.73
16580;BME280;8402;51.466;6.806;2023-06-10T06:13:30;101211.94;;;21.74;58.58
16580;BME280;8402;51.466;6.806;2023-06-10T06:16:00;101203.28;;;21.79;58.62
16580;BME280;8402;51.466;6.806;2023-06-10T06:18:30;101200.19;;;21.84;58.86
16580;BME280;8402;51.466;6.806;2023-06-10T06:21:01;101200.25;;;21.91;59.20
16580;BME280;8402;51.466;6.806;2023-06-10T06:23:36;101205.44;;;21.96;58.49
16580;BME280;8402;51.466;6.806;2023-06-10T06:26:06;101206.69;;;22.02;58.66
16580;BME280;8402;51.466;6.806;2023-06-10T06:28:36;101201.25;;;22.09;58.11
16580;BME280;8402;51.466;6.806;2023-06-10T06:31:06;101209.25;;;22.21;57.57
16580;BME280;8402;51.466;6.806;2023-06-10T06:33:39;101208.63;;;22.42;57.64
16580;BME280;8402;51.466;6.806;2023-06-10T06:36:09;101208.03;;;22.70;57.44
16580;BME280;8402;51.466;6.806;2023-06-10T06:38:41;101214.59;;;23.03;57.15
16580;BME280;8402;51.466;6.806;2023-06-10T06:41:11;101211.53;;;23.26;56.23
16580;BME280;8402;51.466;6.806;2023-06-10T06:43:41;101211.59;;;23.47;55.11
16580;BME280;8402;51.466;6.806;2023-06-10T06:46:12;101207.34;;;23.71;54.54
16580;BME280;8402;51.466;6.806;2023-06-10T06:48:43;101216.09;;;23.91;54.26
16580;BME280;8402;51.466;6.806;2023-06-10T06:51:14;101201.47;;;24.19;54.05
16580;BME280;8402;51.466;6.806;2023-06-10T06:53:46;101217.34;;;24.51;53.69
16580;BME280;8402;51.466;6.806;2023-06-10T06:56:18;101207.38;;;24.78;52.76
16580;BME280;8402;51.466;6.806;2023-06-10T06:58:48;101206.94;;;25.08;52.46
16580;BME280;8402;51.466;6.806;2023-06-10T07:01:18;101210.41;;;25.37;52.22
16580;BME280;8402;51.466;6.806;2023-06-10T07:03:48;101216.22;;;25.61;50.76
16580;BME280;8402;51.466;6.806;2023-06-10T07:06:18;101210.56;;;25.78;50.15
16580;BME280;8402;51.466;6.806;2023-06-10T07:08:51;101209.63;;;25.99;49.55
16580;BME280;8402;51.466;6.806;2023-06-10T07:11:21;101211.09;;;26.15;48.60
16580;BME280;8402;51.466;6.806;2023-06-10T07:13:52;101205.00;;;26.34;49.56
16580;BME280;8402;51.466;6.806;2023-06-10T07:16:22;101207.66;;;26.52;47.93
16580;BME280;8402;51.466;6.806;2023-06-10T07:18:52;101210.63;;;26.72;47.84
16580;BME280;8402;51.466;6.806;2023-06-10T07:21:22;101211.16;;;26.97;47.85
16580;BME280;8402;51.466;6.806;2023-06-10T07:23:55;101207.72;;;27.20;46.59
16580;BME280;8402;51.466;6.806;2023-06-10T07:26:25;101207.53;;;27.34;46.77
16580;BME280;8402;51.466;6.806;2023-06-10T07:28:55;101218.38;;;27.59;46.92
16580;BME280;8402;51.466;6.806;2023-06-10T07:31:25;101208.63;;;27.75;46.39
16580;BME280;8402;51.466;6.806;2023-06-10T07:33:56;101217.50;;;27.93;45.38
16580;BME280;8402;51.466;6.806;2023-06-10T07:36:26;101207.72;;;28.08;45.65
16580;BME280;8402;51.466;6.806;2023-06-10T07:38:59;101207.09;;;28.20;44.21
16580;BME280;8402;51.466;6.806;2023-06-10T07:41:29;101202.88;;;28.36;44.23
16580;BME280;8402;51.466;6.806;2023-06-10T07:43:58;101212.34;;;28.42;42.97
16580;BME280;8402;51.466;6.806;2023-06-10T07:46:29;101210.16;;;28.53;43.55
16580;BME280;8402;51.466;6.806;2023-06-10T07:48:59;101203.44;;;28.70;43.18
16580;BME280;8402;51.466;6.806;2023-06-10T07:51:29;101200.38;;;28.85;42.02
16580;BME280;8402;51.466;6.806;2023-06-10T07:54:02;101198.91;;;29.00;42.30
16580;BME280;8402;51.466;6.806;2023-06-10T07:56:32;101199.69;;;29.20;42.23
16580;BME280;8402;51.466;6.806;2023-06-10T07:59:02;101201.53;;;29.47;42.47
16580;BME280;8402;51.466;6.806;2023-06-10T08:01:32;101206.03;;;29.60;41.33
16580;BME280;8402;51.466;6.806;2023-06-10T08:04:04;101207.28;;;29.76;40.65
16580;BME280;8402;51.466;6.806;2023-06-10T08:06:34;101199.69;;;29.93;40.40
16580;BME280;8402;51.466;6.806;2023-06-10T08:09:08;101206.53;;;30.08;38.57
16580;BME280;8402;51.466;6.806;2023-06-10T08:11:38;101211.97;;;30.31;40.30
16580;BME280;8402;51.466;6.806;2023-06-10T08:14:08;101208.31;;;30.63;39.52
16580;BME280;8402;51.466;6.806;2023-06-10T08:16:38;101203.25;;;30.75;38.39
16580;BME280;8402;51.466;6.806;2023-06-10T08:19:08;101202.25;;;30.81;38.01
16580;BME280;8402;51.466;6.806;2023-06-10T08:21:38;101207.25;;;31.03;38.09
16580;BME280;8402;51.466;6.806;2023-06-10T08:24:11;101201.84;;;31.25;37.88
16580;BME280;8402;51.466;6.806;2023-06-10T08:26:43;101209.28;;;31.44;37.68
16580;BME280;8402;51.466;6.806;2023-06-10T08:29:13;101203.13;;;31.62;37.85
16580;BME280;8402;51.466;6.806;2023-06-10T08:31:44;101204.69;;;31.75;37.32
16580;BME280;8402;51.466;6.806;2023-06-10T08:34:14;101200.44;;;31.96;37.14
16580;BME280;8402;51.466;6.806;2023-06-10T08:36:44;101210.81;;;32.21;36.72
16580;BME280;8402;51.466;6.806;2023-06-10T08:39:22;101211.50;;;32.38;35.64
16580;BME280;8402;51.466;6.806;2023-06-10T08:42:00;101209.63;;;32.57;35.60
16580;BME280;8402;51.466;6.806;2023-06-10T08:44:35;101201.16;;;32.70;35.66
16580;BME280;8402;51.466;6.806;2023-06-10T08:47:12;101206.19;;;32.88;36.06
16580;BME280;8402;51.466;6.806;2023-06-10T08:49:44;101210.81;;;33.03;35.34
16580;BME280;8402;51.466;6.806;2023-06-10T08:52:16;101206.47;;;33.11;35.14
16580;BME280;8402;51.466;6.806;2023-06-10T08:54:54;101205.25;;;33.12;33.90
16580;BME280;8402;51.466;6.806;2023-06-10T08:57:26;101210.50;;;33.32;34.91
16580;BME280;8402;51.466;6.806;2023-06-10T08:59:58;101197.03;;;33.49;34.57
16580;BME280;8402;51.466;6.806;2023-06-10T09:02:28;101199.59;;;33.65;33.29
16580;BME280;8402;51.466;6.806;2023-06-10T09:04:59;101195.38;;;33.61;34.62
16580;BME280;8402;51.466;6.806;2023-06-10T09:07:30;101206.75;;;33.57;33.77
16580;BME280;8402;51.466;6.806;2023-06-10T09:10:06;101201.28;;;33.54;31.76
16580;BME280;8402;51.466;6.806;2023-06-10T09:12:37;101197.09;;;33.58;33.01
16580;BME280;8402;51.466;6.806;2023-06-10T09:15:09;101195.38;;;33.61;32.41
16580;BME280;8402;51.466;6.806;2023-06-10T09:17:39;101196.81;;;33.75;33.27
16580;BME280;8402;51.466;6.806;2023-06-10T09:20:10;101199.25;;;33.94;33.50
16580;BME280;8402;51.466;6.806;2023-06-10T09:22:43;101189.44;;;34.08;33.14
16580;BME280;8402;51.466;6.806;2023-06-10T09:25:15;101195.72;;;34.31;32.76
16580;BME280;8402;51.466;6.806;2023-06-10T09:27:46;101193.06;;;34.36;32.44
16580;BME280;8402;51.466;6.806;2023-06-10T09:30:24;101186.50;;;34.58;31.24
16580;BME280;8402;51.466;6.806;2023-06-10T09:33:00;101195.13;;;34.82;32.51
16580;BME280;8402;51.466;6.806;2023-06-10T09:35:31;101187.75;;;35.02;32.34
16580;BME280;8402;51.466;6.806;2023-06-10T09:38:01;101188.22;;;35.10;31.77
16580;BME280;8402;51.466;6.806;2023-06-10T09:40:48;101195.84;;;35.19;30.84
16580;BME280;8402;51.466;6.806;2023-06-10T09:43:18;101183.75;;;35.46;32.02
16580;BME280;8402;51.466;6.806;2023-06-10T09:45:49;101191.75;;;35.71;31.25
16580;BME280;8402;51.466;6.806;2023-06-10T09:48:20;101193.25;;;35.91;31.47
16580;BME280;8402;51.466;6.806;2023-06-10T09:50:50;101186.34;;;35.92;30.48
16580;BME280;8402;51.466;6.806;2023-06-10T09:53:25;101183.94;;;35.99;30.62
16580;BME280;8402;51.466;6.806;2023-06-10T09:55:57;101187.19;;;36.07;30.27
16580;BME280;8402;51.466;6.806;2023-06-10T09:58:34;101178.34;;;36.14;30.45
16580;BME280;8402;51.466;6.806;2023-06-10T10:01:05;101177.25;;;36.35;30.17
16580;BME280;8402;51.466;6.806;2023-06-10T10:03:43;101184.72;;;36.48;30.25
16580;BME280;8402;51.466;6.806;2023-06-10T10:06:15;101175.59;;;36.53;29.68
16580;BME280;8402;51.466;6.806;2023-06-10T10:08:47;101169.94;;;36.53;28.80
16580;BME280;8402;51.466;6.806;2023-06-10T10:11:21;101174.03;;;36.52;29.40
16580;BME280;8402;51.466;6.806;2023-06-10T10:13:53;101175.69;;;36.34;29.70
16580;BME280;8402;51.466;6.806;2023-06-10T10:16:30;101170.78;;;36.20;28.98
16580;BME280;8402;51.466;6.806;2023-06-10T10:19:08;101172.28;;;36.30;28.25
16580;BME280;8402;51.466;6.806;2023-06-10T10:21:43;101176.66;;;36.31;28.47
16580;BME280;8402;51.466;6.806;2023-06-10T10:24:18;101177.09;;;36.39;28.40
16580;BME280;8402;51.466;6.806;2023-06-10T10:26:54;101171.47;;;36.39;28.83
16580;BME280;8402;51.466;6.806;2023-06-10T10:29:31;101173.00;;;36.40;28.88
16580;BME280;8402;51.466;6.806;2023-06-10T10:32:04;101172.66;;;36.62;28.98
16580;BME280;8402;51.466;6.806;2023-06-10T10:34:40;101173.69;;;36.88;29.27
16580;BME280;8402;51.466;6.806;2023-06-10T10:37:12;101176.72;;;37.00;29.30
16580;BME280;8402;51.466;6.806;2023-06-10T10:39:42;101163.81;;;37.13;28.73
16580;BME280;8402;51.466;6.806;2023-06-10T10:42:16;101168.59;;;37.22;28.26
16580;BME280;8402;51.466;6.806;2023-06-10T10:44:47;101162.75;;;37.11;27.86
16580;BME280;8402;51.466;6.806;2023-06-10T10:47:18;101169.50;;;36.99;27.54
16580;BME280;8402;51.466;6.806;2023-06-10T10:49:51;101163.66;;;36.87;27.80
16580;BME280;8402;51.466;6.806;2023-06-10T10:52:27;101157.69;;;36.85;27.42
16580;BME280;8402;51.466;6.806;2023-06-10T10:55:15;101156.91;;;37.00;27.16
16580;BME280;8402;51.466;6.806;2023-06-10T10:57:53;101160.41;;;37.24;27.36
16580;BME280;8402;51.466;6.806;2023-06-10T11:00:30;101153.25;;;37.43;26.85
16580;BME280;8402;51.466;6.806;2023-06-10T11:03:05;101151.63;;;37.52;26.50
16580;BME280;8402;51.466;6.806;2023-06-10T11:05:39;101152.16;;;37.56;28.00
16580;BME280;8402;51.466;6.806;2023-06-10T11:08:11;101157.38;;;37.78;26.35
16580;BME280;8402;51.466;6.806;2023-06-10T11:10:51;101149.97;;;37.80;26.06
16580;BME280;8402;51.466;6.806;2023-06-10T11:13:26;101149.84;;;37.89;25.86
16580;BME280;8402;51.466;6.806;2023-06-10T11:15:58;101141.06;;;37.87;25.96
16580;BME280;8402;51.466;6.806;2023-06-10T11:18:28;101147.00;;;37.89;26.38
16580;BME280;8402;51.466;6.806;2023-06-10T11:21:01;101144.38;;;38.06;25.85
16580;BME280;8402;51.466;6.806;2023-06-10T11:23:40;101136.28;;;38.19;25.43
16580;BME280;8402;51.466;6.806;2023-06-10T11:26:13;101129.34;;;38.41;25.96
16580;BME280;8402;51.466;6.806;2023-06-10T11:29:04;101130.84;;;38.36;25.71
16580;BME280;8402;51.466;6.806;2023-06-10T11:31:40;101137.06;;;38.40;25.84
16580;BME280;8402;51.466;6.806;2023-06-10T11:34:11;101127.22;;;38.36;25.29
16580;BME280;8402;51.466;6.806;2023-06-10T11:36:43;101128.66;;;38.25;25.11
16580;BME280;8402;51.466;6.806;2023-06-10T11:39:14;101132.63;;;38.34;25.67
16580;BME280;8402;51.466;6.806;2023-06-10T11:41:45;101121.00;;;38.32;24.67
16580;BME280;8402;51.466;6.806;2023-06-10T11:44:18;101126.41;;;38.30;25.02
16580;BME280;8402;51.466;6.806;2023-06-10T11:46:48;101131.41;;;38.40;24.95
16580;BME280;8402;51.466;6.806;2023-06-10T11:49:20;101123.34;;;38.33;23.89
16580;BME280;8402;51.466;6.806;2023-06-10T11:51:51;101128.03;;;38.16;24.34
16580;BME280;8402;51.466;6.806;2023-06-10T11:54:21;101119.88;;;38.23;25.16
16580;BME280;8402;51.466;6.806;2023-06-10T11:56:57;101114.78;;;38.27;23.90
16580;BME280;8402;51.466;6.806;2023-06-10T11:59:30;101111.28;;;38.38;24.24
16580;BME280;8402;51.466;6.806;2023-06-10T12:02:00;101111.34;;;38.44;25.32
16580;BME280;8402;51.466;6.806;2023-06-10T12:04:30;101103.97;;;38.52;24.66
16580;BME280;8402;51.466;6.806;2023-06-10T12:07:00;101111.25;;;38.59;24.47
16580;BME280;8402;51.466;6.806;2023-06-10T12:09:30;101103.91;;;38.46;24.00
16580;BME280;8402;51.466;6.806;2023-06-10T12:12:01;101106.50;;;38.50;23.66
16580;BME280;8402;51.466;6.806;2023-06-10T12:14:53;101108.13;;;38.57;24.35
16580;BME280;8402;51.466;6.806;2023-06-10T12:17:36;101106.56;;;38.55;24.51
16580;BME280;8402;51.466;6.806;2023-06-10T12:20:08;101106.34;;;38.85;24.64
16580;BME280;8402;51.466;6.806;2023-06-10T12:22:39;101099.84;;;39.11;24.63
16580;BME280;8402;51.466;6.806;2023-06-10T12:25:10;101096.75;;;39.08;23.18
16580;BME280;8402;51.466;6.806;2023-06-10T12:27:50;101094.16;;;39.11;23.74
16580;BME280;8402;51.466;6.806;2023-06-10T12:30:25;101085.66;;;39.11;24.03
16580;BME280;8402;51.466;6.806;2023-06-10T12:32:56;101085.66;;;39.11;23.66
16580;BME280;8402;51.466;6.806;2023-06-10T12:35:27;101084.00;;;38.98;23.26
16580;BME280;8402;51.466;6.806;2023-06-10T12:37:59;101083.75;;;38.96;23.26
16580;BME280;8402;51.466;6.806;2023-06-10T12:40:32;101086.84;;;38.98;23.47
16580;BME280;8402;51.466;6.806;2023-06-10T12:43:03;101080.94;;;39.02;23.43
16580;BME280;8402;51.466;6.806;2023-06-10T12:45:37;101082.91;;;39.22;22.66
16580;BME280;8402;51.466;6.806;2023-06-10T12:48:11;101079.41;;;39.06;22.66
16580;BME280;8402;51.466;6.806;2023-06-10T12:50:42;101073.09;;;39.17;23.82
16580;BME280;8402;51.466;6.806;2023-06-10T12:53:12;101086.50;;;39.17;23.39
16580;BME280;8402;51.466;6.806;2023-06-10T12:55:42;101086.00;;;39.18;24.05
16580;BME280;8402;51.466;6.806;2023-06-10T12:58:12;101081.78;;;39.14;22.73
16580;BME280;8402;51.466;6.806;2023-06-10T13:00:45;101088.06;;;39.18;22.97
16580;BME280;8402;51.466;6.806;2023-06-10T13:03:15;101083.84;;;39.13;23.13
16580;BME280;8402;51.466;6.806;2023-06-10T13:05:45;101084.06;;;39.04;22.48
16580;BME280;8402;51.466;6.806;2023-06-10T13:08:16;101078.22;;;38.81;22.93
16580;BME280;8402;51.466;6.806;2023-06-10T13:10:46;101078.06;;;38.96;22.93
16580;BME280;8402;51.466;6.806;2023-06-10T13:13:15;101076.97;;;39.20;23.57
16580;BME280;8402;51.466;6.806;2023-06-10T13:15:48;101076.84;;;39.40;21.79
16580;BME280;8402;51.466;6.806;2023-06-10T13:18:18;101075.88;;;39.54;22.62
16580;BME280;8402;51.466;6.806;2023-06-10T13:20:49;101081.91;;;39.68;22.69
16580;BME280;8402;51.466;6.806;2023-06-10T13:23:18;101064.34;;;39.69;22.40